sensor_id;sensor_type;location;lat;lon;timestamp;P1;durP1;ratioP1;P2;durP2;ratioP2
29916;SDS011;16786;49.466;11.068;2023-04-15T00:01:53;16.35;;;10.95;;
29916;SDS011;16786;49.466;11.068;2023-04-15T00:04:24;16.88;;;10.85;;
29916;SDS011;16786;49.466;11.068;2023-04-15T00:06:51;13.52;;;9.77;;
29916;SDS011;16786;49.466;11.068;2023-04-15T00:09:20;17.90;;;10.60;;
29916;SDS011;16786;49.466;11.068;2023-04-15T00:11:47;13.90;;;10.27;;
29916;SDS011;16786;49.466;11.068;2023-04-15T00:14:16;15.40;;;9.75;;
29916;SDS011;16786;49.466;11.068;2023-04-15T00:16:44;15.88;;;10.90;;
29916;SDS011;16786;49.466;11.068;2023-04-15T00:19:11;13.55;;;10.43;;
29916;SDS011;16786;49.466;11.068;2023-04-15T00:21:39;14.35;;;11.07;;
29916;SDS011;16786;49.466;11.068;2023-04-15T00:24:06;16.33;;;11.15;;
29916;SDS011;16786;49.466;11.068;2023-04-15T00:26:33;14.25;;;10.10;;
29916;SDS011;16786;49.466;11.068;2023-04-15T00:29:01;13.77;;;10.68;;
29916;SDS011;16786;49.466;11.068;2023-04-15T00:31:28;15.68;;;10.82;;
29916;SDS011;16786;49.466;11.068;2023-04-15T00:33:57;13.60;;;9.88;;
29916;SDS011;16786;49.466;11.068;2023-04-15T00:36:25;15.18;;;9.75;;
29916;SDS011;16786;49.466;11.068;2023-04-15T00:38:52;11.60;;;8.70;;
29916;SDS011;16786;49.466;11.068;2023-04-15T00:41:20;10.80;;;7.97;;
29916;SDS011;16786;49.466;11.068;2023-04-15T00:43:48;12.20;;;8.88;;
29916;SDS011;16786;49.466;11.068;2023-04-15T00:46:16;13.25;;;9.20;;
29916;SDS011;16786;49.466;11.068;2023-04-15T00:48:46;11.27;;;8.93;;
29916;SDS011;16786;49.466;11.068;2023-04-15T00:51:13;12.52;;;8.95;;
29916;SDS011;16786;49.466;11.068;2023-04-15T00:53:40;13.75;;;8.93;;
29916;SDS011;16786;49.466;11.068;2023-04-15T00:56:09;12.43;;;8.57;;
29916;SDS011;16786;49.466;11.068;2023-04-15T00:58:36;12.57;;;9.02;;
29916;SDS011;16786;49.466;11.068;2023-04-15T01:01:04;11.93;;;8.93;;
29916;SDS011;16786;49.466;11.068;2023-04-15T01:03:32;12.60;;;8.57;;
29916;SDS011;16786;49.466;11.068;2023-04-15T01:06:00;12.82;;;9.43;;
29916;SDS011;16786;49.466;11.068;2023-04-15T01:08:29;11.77;;;8.77;;
29916;SDS011;16786;49.466;11.068;2023-04-15T01:10:57;12.13;;;9.10;;
29916;SDS011;16786;49.466;11.068;2023-04-15T01:13:27;12.63;;;8.40;;
29916;SDS011;16786;49.466;11.068;2023-04-15T01:15:56;11.30;;;8.27;;
29916;SDS011;16786;49.466;11.068;2023-04-15T01:18:23;13.23;;;7.90;;
29916;SDS011;16786;49.466;11.068;2023-04-15T01:20:51;10.77;;;7.93;;
29916;SDS011;16786;49.466;11.068;2023-04-15T01:23:22;10.65;;;8.05;;
29916;SDS011;16786;49.466;11.068;2023-04-15T01:25:50;10.32;;;7.82;;
29916;SDS011;16786;49.466;11.068;2023-04-15T01:28:19;11.30;;;8.43;;
29916;SDS011;16786;49.466;11.068;2023-04-15T01:30:47;12.40;;;7.95;;
29916;SDS011;16786;49.466;11.068;2023-04-15T01:33:14;10.95;;;8.27;;
29916;SDS011;16786;49.466;11.068;2023-04-15T01:36:00;12.15;;;8.50;;
29916;SDS011;16786;49.466;11.068;2023-04-15T01:38:28;10.02;;;8.02;;
29916;SDS011;16786;49.466;11.068;2023-04-15T01:40:56;11.70;;;7.90;;
29916;SDS011;16786;49.466;11.068;2023-04-15T01:43:26;15.77;;;10.45;;
29916;SDS011;16786;49.466;11.068;2023-04-15T01:45:55;13.52;;;8.70;;
29916;SDS011;16786;49.466;11.068;2023-04-15T01:48:25;10.93;;;8.43;;
29916;SDS011;16786;49.466;11.068;2023-04-15T01:50:54;11.35;;;9.07;;
29916;SDS011;16786;49.466;11.068;2023-04-15T01:53:26;14.07;;;7.97;;
29916;SDS011;16786;49.466;11.068;2023-04-15T01:55:54;11.85;;;8.27;;
29916;SDS011;16786;49.466;11.068;2023-04-15T01:58:23;12.68;;;8.23;;
29916;SDS011;16786;49.466;11.068;2023-04-15T02:00:52;11.90;;;8.18;;
29916;SDS011;16786;49.466;11.068;2023-04-15T02:03:20;11.73;;;7.32;;
29916;SDS011;16786;49.466;11.068;2023-04-15T02:05:49;10.65;;;8.20;;
29916;SDS011;16786;49.466;11.068;2023-04-15T02:08:18;11.38;;;8.07;;
29916;SDS011;16786;49.466;11.068;2023-04-15T02:10:46;9.63;;;7.40;;
29916;SDS011;16786;49.466;11.068;2023-04-15T02:13:15;13.98;;;7.97;;
29916;SDS011;16786;49.466;11.068;2023-04-15T02:15:47;11.93;;;7.68;;
29916;SDS011;16786;49.466;11.068;2023-04-15T02:18:19;10.48;;;7.20;;
29916;SDS011;16786;49.466;11.068;2023-04-15T02:20:49;10.90;;;7.93;;
29916;SDS011;16786;49.466;11.068;2023-04-15T02:23:19;11.00;;;7.50;;
29916;SDS011;16786;49.466;11.068;2023-04-15T02:25:47;10.45;;;8.18;;
29916;SDS011;16786;49.466;11.068;2023-04-15T02:28:21;11.85;;;7.55;;
29916;SDS011;16786;49.466;11.068;2023-04-15T02:30:49;9.95;;;7.55;;
29916;SDS011;16786;49.466;11.068;2023-04-15T02:33:20;11.20;;;7.18;;
29916;SDS011;16786;49.466;11.068;2023-04-15T02:35:49;9.77;;;7.30;;
29916;SDS011;16786;49.466;11.068;2023-04-15T02:38:17;10.32;;;7.40;;
29916;SDS011;16786;49.466;11.068;2023-04-15T02:40:47;10.32;;;7.18;;
29916;SDS011;16786;49.466;11.068;2023-04-15T02:43:17;10.90;;;7.43;;
29916;SDS011;16786;49.466;11.068;2023-04-15T02:45:45;9.40;;;6.80;;
29916;SDS011;16786;49.466;11.068;2023-04-15T02:48:14;9.55;;;7.05;;
29916;SDS011;16786;49.466;11.068;2023-04-15T02:50:45;11.57;;;7.57;;
29916;SDS011;16786;49.466;11.068;2023-04-15T02:53:16;10.35;;;6.97;;
29916;SDS011;16786;49.466;11.068;2023-04-15T02:55:44;12.05;;;7.65;;
29916;SDS011;16786;49.466;11.068;2023-04-15T02:58:13;11.27;;;7.50;;
29916;SDS011;16786;49.466;11.068;2023-04-15T03:00:41;11.93;;;7.45;;
29916;SDS011;16786;49.466;11.068;2023-04-15T03:03:10;12.15;;;7.47;;
29916;SDS011;16786;49.466;11.068;2023-04-15T03:05:39;11.27;;;7.03;;
29916;SDS011;16786;49.466;11.068;2023-04-15T03:08:08;9.77;;;7.32;;
29916;SDS011;16786;49.466;11.068;2023-04-15T03:10:36;13.10;;;7.53;;
29916;SDS011;16786;49.466;11.068;2023-04-15T03:13:05;11.25;;;7.00;;
29916;SDS011;16786;49.466;11.068;2023-04-15T03:15:34;9.23;;;7.00;;
29916;SDS011;16786;49.466;11.068;2023-04-15T03:18:03;10.85;;;7.82;;
29916;SDS011;16786;49.466;11.068;2023-04-15T03:20:33;9.70;;;6.90;;
29916;SDS011;16786;49.466;11.068;2023-04-15T03:23:03;9.73;;;7.25;;
29916;SDS011;16786;49.466;11.068;2023-04-15T03:25:32;11.02;;;6.68;;
29916;SDS011;16786;49.466;11.068;2023-04-15T03:28:00;11.85;;;7.32;;
29916;SDS011;16786;49.466;11.068;2023-04-15T03:30:30;11.43;;;6.65;;
29916;SDS011;16786;49.466;11.068;2023-04-15T03:32:58;9.98;;;7.53;;
29916;SDS011;16786;49.466;11.068;2023-04-15T03:35:27;9.93;;;6.28;;
29916;SDS011;16786;49.466;11.068;2023-04-15T03:37:56;10.05;;;6.85;;
29916;SDS011;16786;49.466;11.068;2023-04-15T03:40:25;9.73;;;6.10;;
29916;SDS011;16786;49.466;11.068;2023-04-15T03:42:53;10.10;;;6.88;;
29916;SDS011;16786;49.466;11.068;2023-04-15T03:45:22;9.90;;;7.40;;
29916;SDS011;16786;49.466;11.068;2023-04-15T03:47:51;11.52;;;6.80;;
29916;SDS011;16786;49.466;11.068;2023-04-15T03:50:19;9.75;;;7.55;;
29916;SDS011;16786;49.466;11.068;2023-04-15T03:52:48;9.57;;;7.30;;
29916;SDS011;16786;49.466;11.068;2023-04-15T03:55:18;10.73;;;7.93;;
29916;SDS011;16786;49.466;11.068;2023-04-15T03:57:47;12.30;;;7.93;;
29916;SDS011;16786;49.466;11.068;2023-04-15T04:00:15;11.63;;;7.47;;
29916;SDS011;16786;49.466;11.068;2023-04-15T04:02:44;12.98;;;8.75;;
29916;SDS011;16786;49.466;11.068;2023-04-15T04:05:13;13.32;;;8.45;;
29916;SDS011;16786;49.466;11.068;2023-04-15T04:07:41;11.90;;;9.13;;
29916;SDS011;16786;49.466;11.068;2023-04-15T04:10:10;11.48;;;8.23;;
29916;SDS011;16786;49.466;11.068;2023-04-15T04:12:38;13.07;;;8.10;;
29916;SDS011;16786;49.466;11.068;2023-04-15T04:15:07;12.02;;;8.90;;
29916;SDS011;16786;49.466;11.068;2023-04-15T04:17:36;12.95;;;8.75;;
29916;SDS011;16786;49.466;11.068;2023-04-15T04:20:04;11.55;;;8.18;;
29916;SDS011;16786;49.466;11.068;2023-04-15T04:22:39;11.52;;;8.10;;
29916;SDS011;16786;49.466;11.068;2023-04-15T04:25:08;11.38;;;8.20;;
29916;SDS011;16786;49.466;11.068;2023-04-15T04:27:38;13.00;;;8.80;;
29916;SDS011;16786;49.466;11.068;2023-04-15T04:30:06;11.00;;;8.13;;
29916;SDS011;16786;49.466;11.068;2023-04-15T04:32:35;14.43;;;9.30;;
29916;SDS011;16786;49.466;11.068;2023-04-15T04:35:04;12.63;;;8.68;;
29916;SDS011;16786;49.466;11.068;2023-04-15T04:37:34;12.38;;;8.32;;
29916;SDS011;16786;49.466;11.068;2023-04-15T04:40:02;12.13;;;8.50;;
29916;SDS011;16786;49.466;11.068;2023-04-15T04:42:31;14.65;;;8.80;;
29916;SDS011;16786;49.466;11.068;2023-04-15T04:44:59;12.73;;;8.85;;
29916;SDS011;16786;49.466;11.068;2023-04-15T04:47:29;13.18;;;9.05;;
29916;SDS011;16786;49.466;11.068;2023-04-15T04:49:58;12.65;;;9.15;;
29916;SDS011;16786;49.466;11.068;2023-04-15T04:52:27;10.93;;;8.23;;
29916;SDS011;16786;49.466;11.068;2023-04-15T04:54:55;12.88;;;9.35;;
29916;SDS011;16786;49.466;11.068;2023-04-15T04:57:23;12.82;;;8.80;;
29916;SDS011;16786;49.466;11.068;2023-04-15T04:59:52;12.50;;;8.98;;
29916;SDS011;16786;49.466;11.068;2023-04-15T05:02:20;12.02;;;8.80;;
29916;SDS011;16786;49.466;11.068;2023-04-15T05:04:49;12.48;;;9.10;;
29916;SDS011;16786;49.466;11.068;2023-04-15T05:07:21;13.30;;;9.43;;
29916;SDS011;16786;49.466;11.068;2023-04-15T05:09:49;13.30;;;9.02;;
29916;SDS011;16786;49.466;11.068;2023-04-15T05:12:18;12.68;;;8.93;;
29916;SDS011;16786;49.466;11.068;2023-04-15T05:14:46;13.77;;;9.73;;
29916;SDS011;16786;49.466;11.068;2023-04-15T05:17:15;14.73;;;10.02;;
29916;SDS011;16786;49.466;11.068;2023-04-15T05:19:43;14.05;;;8.98;;
29916;SDS011;16786;49.466;11.068;2023-04-15T05:22:12;12.35;;;8.25;;
29916;SDS011;16786;49.466;11.068;2023-04-15T05:24:40;13.25;;;9.10;;
29916;SDS011;16786;49.466;11.068;2023-04-15T05:27:09;13.23;;;9.00;;
29916;SDS011;16786;49.466;11.068;2023-04-15T05:29:38;12.98;;;9.75;;
29916;SDS011;16786;49.466;11.068;2023-04-15T05:32:07;13.30;;;8.80;;
29916;SDS011;16786;49.466;11.068;2023-04-15T05:34:35;13.55;;;8.63;;
29916;SDS011;16786;49.466;11.068;2023-04-15T05:37:04;11.98;;;8.63;;
29916;SDS011;16786;49.466;11.068;2023-04-15T05:39:32;11.45;;;8.02;;
29916;SDS011;16786;49.466;11.068;2023-04-15T05:42:01;11.20;;;8.05;;
29916;SDS011;16786;49.466;11.068;2023-04-15T05:44:30;12.18;;;8.55;;
29916;SDS011;16786;49.466;11.068;2023-04-15T05:46:58;12.60;;;8.55;;
29916;SDS011;16786;49.466;11.068;2023-04-15T05:49:27;13.57;;;8.77;;
29916;SDS011;16786;49.466;11.068;2023-04-15T05:51:56;12.75;;;9.10;;
29916;SDS011;16786;49.466;11.068;2023-04-15T05:54:24;12.88;;;9.07;;
29916;SDS011;16786;49.466;11.068;2023-04-15T05:56:54;12.15;;;9.10;;
29916;SDS011;16786;49.466;11.068;2023-04-15T05:59:24;13.27;;;9.30;;
29916;SDS011;16786;49.466;11.068;2023-04-15T06:01:52;12.45;;;9.02;;
29916;SDS011;16786;49.466;11.068;2023-04-15T06:04:21;12.90;;;9.30;;
29916;SDS011;16786;49.466;11.068;2023-04-15T06:06:50;18.00;;;11.85;;
29916;SDS011;16786;49.466;11.068;2023-04-15T06:09:19;12.60;;;9.13;;
29916;SDS011;16786;49.466;11.068;2023-04-15T06:11:47;13.70;;;9.20;;
29916;SDS011;16786;49.466;11.068;2023-04-15T06:14:16;14.77;;;9.68;;
29916;SDS011;16786;49.466;11.068;2023-04-15T06:16:44;13.27;;;9.55;;
29916;SDS011;16786;49.466;11.068;2023-04-15T06:19:13;16.73;;;10.07;;
29916;SDS011;16786;49.466;11.068;2023-04-15T06:21:43;14.27;;;10.02;;
29916;SDS011;16786;49.466;11.068;2023-04-15T06:24:11;12.60;;;10.13;;
29916;SDS011;16786;49.466;11.068;2023-04-15T06:26:40;13.15;;;9.63;;
29916;SDS011;16786;49.466;11.068;2023-04-15T06:29:08;12.15;;;9.38;;
29916;SDS011;16786;49.466;11.068;2023-04-15T06:31:37;11.93;;;8.73;;
29916;SDS011;16786;49.466;11.068;2023-04-15T06:34:05;14.98;;;9.90;;
29916;SDS011;16786;49.466;11.068;2023-04-15T06:36:34;14.27;;;9.38;;
29916;SDS011;16786;49.466;11.068;2023-04-15T06:39:02;15.93;;;9.48;;
29916;SDS011;16786;49.466;11.068;2023-04-15T06:41:31;13.30;;;9.30;;
29916;SDS011;16786;49.466;11.068;2023-04-15T06:44:01;12.18;;;9.48;;
29916;SDS011;16786;49.466;11.068;2023-04-15T06:46:29;15.75;;;9.98;;
29916;SDS011;16786;49.466;11.068;2023-04-15T06:48:58;12.13;;;9.20;;
29916;SDS011;16786;49.466;11.068;2023-04-15T06:51:27;12.25;;;9.38;;
29916;SDS011;16786;49.466;11.068;2023-04-15T06:53:55;16.75;;;10.48;;
29916;SDS011;16786;49.466;11.068;2023-04-15T06:56:24;13.07;;;9.23;;
29916;SDS011;16786;49.466;11.068;2023-04-15T06:58:53;14.85;;;9.32;;
29916;SDS011;16786;49.466;11.068;2023-04-15T07:01:22;14.55;;;9.52;;
29916;SDS011;16786;49.466;11.068;2023-04-15T07:03:51;13.20;;;9.15;;
29916;SDS011;16786;49.466;11.068;2023-04-15T07:06:19;12.68;;;8.82;;
29916;SDS011;16786;49.466;11.068;2023-04-15T07:08:48;11.18;;;8.55;;
29916;SDS011;16786;49.466;11.068;2023-04-15T07:11:17;13.15;;;8.57;;
29916;SDS011;16786;49.466;11.068;2023-04-15T07:13:46;13.05;;;8.82;;
29916;SDS011;16786;49.466;11.068;2023-04-15T07:16:15;11.95;;;9.30;;
29916;SDS011;16786;49.466;11.068;2023-04-15T07:18:43;11.50;;;8.52;;
29916;SDS011;16786;49.466;11.068;2023-04-15T07:21:12;12.25;;;8.65;;
29916;SDS011;16786;49.466;11.068;2023-04-15T07:23:40;13.32;;;9.40;;
29916;SDS011;16786;49.466;11.068;2023-04-15T07:26:11;12.70;;;9.35;;
29916;SDS011;16786;49.466;11.068;2023-04-15T07:28:39;11.68;;;8.35;;
29916;SDS011;16786;49.466;11.068;2023-04-15T07:31:08;12.35;;;8.95;;
29916;SDS011;16786;49.466;11.068;2023-04-15T07:33:37;14.98;;;8.93;;
29916;SDS011;16786;49.466;11.068;2023-04-15T07:36:05;10.65;;;8.38;;
29916;SDS011;16786;49.466;11.068;2023-04-15T07:38:33;11.63;;;8.88;;
29916;SDS011;16786;49.466;11.068;2023-04-15T07:41:02;11.38;;;8.68;;
29916;SDS011;16786;49.466;11.068;2023-04-15T07:43:31;10.35;;;7.35;;
29916;SDS011;16786;49.466;11.068;2023-04-15T07:46:00;10.38;;;7.53;;
29916;SDS011;16786;49.466;11.068;2023-04-15T07:48:28;9.73;;;7.28;;
29916;SDS011;16786;49.466;11.068;2023-04-15T07:50:57;10.27;;;7.57;;
29916;SDS011;16786;49.466;11.068;2023-04-15T07:53:26;11.88;;;7.60;;
29916;SDS011;16786;49.466;11.068;2023-04-15T07:55:54;10.63;;;7.72;;
29916;SDS011;16786;49.466;11.068;2023-04-15T07:58:23;9.80;;;7.25;;
29916;SDS011;16786;49.466;11.068;2023-04-15T08:00:51;11.27;;;7.40;;
29916;SDS011;16786;49.466;11.068;2023-04-15T08:03:21;9.93;;;6.63;;
29916;SDS011;16786;49.466;11.068;2023-04-15T08:05:50;8.88;;;6.60;;
29916;SDS011;16786;49.466;11.068;2023-04-15T08:08:19;8.48;;;5.75;;
29916;SDS011;16786;49.466;11.068;2023-04-15T08:10:48;8.77;;;5.40;;
29916;SDS011;16786;49.466;11.068;2023-04-15T08:13:19;9.13;;;6.22;;
29916;SDS011;16786;49.466;11.068;2023-04-15T08:15:56;7.18;;;5.57;;
29916;SDS011;16786;49.466;11.068;2023-04-15T08:18:51;8.73;;;6.03;;
29916;SDS011;16786;49.466;11.068;2023-04-15T08:21:21;8.95;;;6.05;;
29916;SDS011;16786;49.466;11.068;2023-04-15T08:23:50;7.45;;;5.88;;
29916;SDS011;16786;49.466;11.068;2023-04-15T08:26:20;7.75;;;5.75;;
29916;SDS011;16786;49.466;11.068;2023-04-15T08:28:49;8.57;;;5.78;;
29916;SDS011;16786;49.466;11.068;2023-04-15T08:31:18;9.75;;;5.43;;
29916;SDS011;16786;49.466;11.068;2023-04-15T08:33:46;7.30;;;4.45;;
29916;SDS011;16786;49.466;11.068;2023-04-15T08:36:15;8.55;;;4.30;;
29916;SDS011;16786;49.466;11.068;2023-04-15T08:38:44;5.68;;;3.63;;
29916;SDS011;16786;49.466;11.068;2023-04-15T08:41:18;5.70;;;3.42;;
29916;SDS011;16786;49.466;11.068;2023-04-15T08:43:53;4.50;;;2.97;;
29916;SDS011;16786;49.466;11.068;2023-04-15T08:46:25;4.70;;;2.47;;
29916;SDS011;16786;49.466;11.068;2023-04-15T08:48:55;3.97;;;2.58;;
29916;SDS011;16786;49.466;11.068;2023-04-15T08:51:25;3.92;;;2.63;;
29916;SDS011;16786;49.466;11.068;2023-04-15T08:53:54;5.05;;;2.58;;
29916;SDS011;16786;49.466;11.068;2023-04-15T08:56:23;4.10;;;2.60;;
29916;SDS011;16786;49.466;11.068;2023-04-15T08:58:53;4.72;;;2.92;;
29916;SDS011;16786;49.466;11.068;2023-04-15T09:01:22;4.00;;;2.78;;
29916;SDS011;16786;49.466;11.068;2023-04-15T09:03:51;4.90;;;2.70;;
29916;SDS011;16786;49.466;11.068;2023-04-15T09:06:24;6.47;;;3.30;;
29916;SDS011;16786;49.466;11.068;2023-04-15T09:08:52;4.72;;;3.10;;
29916;SDS011;16786;49.466;11.068;2023-04-15T09:11:21;5.78;;;3.40;;
29916;SDS011;16786;49.466;11.068;2023-04-15T09:13:50;5.13;;;3.22;;
29916;SDS011;16786;49.466;11.068;2023-04-15T09:16:19;5.95;;;3.58;;
29916;SDS011;16786;49.466;11.068;2023-04-15T09:18:47;7.30;;;3.72;;
29916;SDS011;16786;49.466;11.068;2023-04-15T09:21:16;8.60;;;3.70;;
29916;SDS011;16786;49.466;11.068;2023-04-15T09:23:55;7.40;;;4.88;;
29916;SDS011;16786;49.466;11.068;2023-04-15T09:26:29;8.18;;;4.85;;
29916;SDS011;16786;49.466;11.068;2023-04-15T09:29:08;7.32;;;4.93;;
29916;SDS011;16786;49.466;11.068;2023-04-15T09:31:38;6.78;;;4.93;;
29916;SDS011;16786;49.466;11.068;2023-04-15T09:34:07;6.50;;;4.65;;
29916;SDS011;16786;49.466;11.068;2023-04-15T09:39:15;6.68;;;4.50;;
29916;SDS011;16786;49.466;11.068;2023-04-15T09:41:43;6.28;;;3.83;;
29916;SDS011;16786;49.466;11.068;2023-04-15T09:44:25;8.05;;;4.20;;
29916;SDS011;16786;49.466;11.068;2023-04-15T09:46:54;5.82;;;3.40;;
29916;SDS011;16786;49.466;11.068;2023-04-15T09:49:22;4.63;;;3.22;;
29916;SDS011;16786;49.466;11.068;2023-04-15T09:51:56;4.38;;;3.00;;
29916;SDS011;16786;49.466;11.068;2023-04-15T09:54:36;4.38;;;3.08;;
29916;SDS011;16786;49.466;11.068;2023-04-15T09:57:06;4.47;;;2.88;;
29916;SDS011;16786;49.466;11.068;2023-04-15T09:59:37;4.53;;;2.88;;
29916;SDS011;16786;49.466;11.068;2023-04-15T10:02:06;5.18;;;2.88;;
29916;SDS011;16786;49.466;11.068;2023-04-15T10:04:37;4.85;;;3.10;;
29916;SDS011;16786;49.466;11.068;2023-04-15T10:07:09;4.13;;;2.90;;
29916;SDS011;16786;49.466;11.068;2023-04-15T10:09:39;4.53;;;3.10;;
29916;SDS011;16786;49.466;11.068;2023-04-15T10:12:08;5.00;;;3.38;;
29916;SDS011;16786;49.466;11.068;2023-04-15T10:14:37;5.57;;;3.20;;
29916;SDS011;16786;49.466;11.068;2023-04-15T10:17:10;4.00;;;2.70;;
29916;SDS011;16786;49.466;11.068;2023-04-15T10:19:41;5.32;;;3.30;;
29916;SDS011;16786;49.466;11.068;2023-04-15T10:22:10;4.18;;;2.90;;
29916;SDS011;16786;49.466;11.068;2023-04-15T10:24:40;4.40;;;2.90;;
29916;SDS011;16786;49.466;11.068;2023-04-15T10:27:10;4.28;;;2.80;;
29916;SDS011;16786;49.466;11.068;2023-04-15T10:29:39;5.13;;;3.13;;
29916;SDS011;16786;49.466;11.068;2023-04-15T10:32:08;6.93;;;3.28;;
29916;SDS011;16786;49.466;11.068;2023-04-15T10:34:38;5.93;;;3.15;;
29916;SDS011;16786;49.466;11.068;2023-04-15T10:37:08;4.30;;;2.80;;
29916;SDS011;16786;49.466;11.068;2023-04-15T10:39:39;6.47;;;3.33;;
29916;SDS011;16786;49.466;11.068;2023-04-15T10:42:13;4.57;;;3.25;;
29916;SDS011;16786;49.466;11.068;2023-04-15T10:44:44;4.70;;;3.35;;
29916;SDS011;16786;49.466;11.068;2023-04-15T10:47:17;4.88;;;3.40;;
29916;SDS011;16786;49.466;11.068;2023-04-15T10:49:49;7.28;;;4.30;;
29916;SDS011;16786;49.466;11.068;2023-04-15T10:52:23;5.40;;;3.37;;
29916;SDS011;16786;49.466;11.068;2023-04-15T10:55:01;17.10;;;9.38;;
29916;SDS011;16786;49.466;11.068;2023-04-15T10:57:36;5.13;;;3.72;;
29916;SDS011;16786;49.466;11.068;2023-04-15T11:00:16;5.22;;;3.38;;
29916;SDS011;16786;49.466;11.068;2023-04-15T11:02:47;5.60;;;3.58;;
29916;SDS011;16786;49.466;11.068;2023-04-15T11:05:20;4.85;;;3.20;;
29916;SDS011;16786;49.466;11.068;2023-04-15T11:07:52;5.63;;;3.83;;
29916;SDS011;16786;49.466;11.068;2023-04-15T11:12:57;5.50;;;3.53;;
29916;SDS011;16786;49.466;11.068;2023-04-15T11:15:32;5.50;;;3.70;;
29916;SDS011;16786;49.466;11.068;2023-04-15T11:20:55;4.93;;;3.78;;
29916;SDS011;16786;49.466;11.068;2023-04-15T11:23:46;8.23;;;3.95;;
29916;SDS011;16786;49.466;11.068;2023-04-15T11:26:15;5.90;;;3.90;;
29916;SDS011;16786;49.466;11.068;2023-04-15T11:28:44;5.75;;;3.88;;
29916;SDS011;16786;49.466;11.068;2023-04-15T11:31:14;5.85;;;3.50;;
29916;SDS011;16786;49.466;11.068;2023-04-15T11:36:20;6.00;;;3.83;;
29916;SDS011;16786;49.466;11.068;2023-04-15T11:38:50;5.93;;;3.67;;
29916;SDS011;16786;49.466;11.068;2023-04-15T11:41:20;5.63;;;3.58;;
29916;SDS011;16786;49.466;11.068;2023-04-15T11:43:49;5.90;;;3.60;;
29916;SDS011;16786;49.466;11.068;2023-04-15T11:46:19;5.57;;;3.53;;
29916;SDS011;16786;49.466;11.068;2023-04-15T11:48:48;6.50;;;3.42;;
29916;SDS011;16786;49.466;11.068;2023-04-15T11:51:17;6.35;;;3.80;;
29916;SDS011;16786;49.466;11.068;2023-04-15T11:53:48;4.95;;;3.28;;
29916;SDS011;16786;49.466;11.068;2023-04-15T11:56:20;6.22;;;4.18;;
29916;SDS011;16786;49.466;11.068;2023-04-15T11:58:55;10.90;;;5.22;;
29916;SDS011;16786;49.466;11.068;2023-04-15T12:01:34;6.75;;;3.72;;
29916;SDS011;16786;49.466;11.068;2023-04-15T12:04:11;5.28;;;3.28;;
29916;SDS011;16786;49.466;11.068;2023-04-15T12:06:39;4.47;;;3.00;;
29916;SDS011;16786;49.466;11.068;2023-04-15T12:09:08;5.72;;;3.50;;
29916;SDS011;16786;49.466;11.068;2023-04-15T12:11:42;4.10;;;2.90;;
29916;SDS011;16786;49.466;11.068;2023-04-15T12:16:52;4.30;;;2.67;;
29916;SDS011;16786;49.466;11.068;2023-04-15T12:19:24;3.97;;;2.60;;
29916;SDS011;16786;49.466;11.068;2023-04-15T12:22:00;4.70;;;2.72;;
29916;SDS011;16786;49.466;11.068;2023-04-15T12:24:38;5.03;;;2.88;;
29916;SDS011;16786;49.466;11.068;2023-04-15T12:27:06;3.92;;;2.75;;
29916;SDS011;16786;49.466;11.068;2023-04-15T12:29:38;4.65;;;2.97;;
29916;SDS011;16786;49.466;11.068;2023-04-15T12:32:08;3.63;;;2.50;;
29916;SDS011;16786;49.466;11.068;2023-04-15T12:34:40;4.10;;;2.70;;
29916;SDS011;16786;49.466;11.068;2023-04-15T12:37:17;3.50;;;2.50;;
29916;SDS011;16786;49.466;11.068;2023-04-15T12:39:46;3.55;;;2.53;;
29916;SDS011;16786;49.466;11.068;2023-04-15T12:42:15;4.25;;;2.70;;
29916;SDS011;16786;49.466;11.068;2023-04-15T12:44:43;3.78;;;2.45;;
29916;SDS011;16786;49.466;11.068;2023-04-15T12:47:11;5.60;;;3.60;;
29916;SDS011;16786;49.466;11.068;2023-04-15T12:49:39;5.18;;;3.00;;
29916;SDS011;16786;49.466;11.068;2023-04-15T12:52:06;4.40;;;3.05;;
29916;SDS011;16786;49.466;11.068;2023-04-15T12:54:34;3.10;;;2.20;;
29916;SDS011;16786;49.466;11.068;2023-04-15T12:57:02;3.67;;;2.50;;
29916;SDS011;16786;49.466;11.068;2023-04-15T12:59:33;5.22;;;2.80;;
29916;SDS011;16786;49.466;11.068;2023-04-15T13:02:00;3.80;;;2.58;;
29916;SDS011;16786;49.466;11.068;2023-04-15T13:04:28;3.65;;;2.75;;
29916;SDS011;16786;49.466;11.068;2023-04-15T13:06:57;4.82;;;3.05;;
29916;SDS011;16786;49.466;11.068;2023-04-15T13:09:24;4.15;;;2.55;;
29916;SDS011;16786;49.466;11.068;2023-04-15T13:11:52;5.55;;;3.20;;
29916;SDS011;16786;49.466;11.068;2023-04-15T13:14:20;4.32;;;2.80;;
29916;SDS011;16786;49.466;11.068;2023-04-15T13:16:47;4.05;;;2.20;;
29916;SDS011;16786;49.466;11.068;2023-04-15T13:19:14;4.03;;;2.80;;
29916;SDS011;16786;49.466;11.068;2023-04-15T13:21:41;3.22;;;2.40;;
29916;SDS011;16786;49.466;11.068;2023-04-15T13:24:09;3.75;;;2.50;;
29916;SDS011;16786;49.466;11.068;2023-04-15T13:26:36;3.97;;;2.40;;
29916;SDS011;16786;49.466;11.068;2023-04-15T13:29:03;4.68;;;2.80;;
29916;SDS011;16786;49.466;11.068;2023-04-15T13:31:31;4.78;;;2.92;;
29916;SDS011;16786;49.466;11.068;2023-04-15T13:33:58;4.97;;;2.97;;
29916;SDS011;16786;49.466;11.068;2023-04-15T13:36:25;4.45;;;2.75;;
29916;SDS011;16786;49.466;11.068;2023-04-15T13:38:53;4.78;;;2.42;;
29916;SDS011;16786;49.466;11.068;2023-04-15T13:41:21;3.92;;;2.70;;
29916;SDS011;16786;49.466;11.068;2023-04-15T13:43:48;4.40;;;2.70;;
29916;SDS011;16786;49.466;11.068;2023-04-15T13:46:15;3.40;;;2.40;;
29916;SDS011;16786;49.466;11.068;2023-04-15T13:48:43;5.18;;;3.10;;
29916;SDS011;16786;49.466;11.068;2023-04-15T13:51:10;4.35;;;2.72;;
29916;SDS011;16786;49.466;11.068;2023-04-15T13:53:37;4.25;;;2.58;;
29916;SDS011;16786;49.466;11.068;2023-04-15T13:56:06;3.65;;;2.50;;
29916;SDS011;16786;49.466;11.068;2023-04-15T13:58:34;3.95;;;2.60;;
29916;SDS011;16786;49.466;11.068;2023-04-15T14:01:02;4.18;;;2.90;;
29916;SDS011;16786;49.466;11.068;2023-04-15T14:03:32;4.55;;;2.88;;
29916;SDS011;16786;49.466;11.068;2023-04-15T14:06:00;4.32;;;2.72;;
29916;SDS011;16786;49.466;11.068;2023-04-15T14:08:28;4.15;;;2.70;;
29916;SDS011;16786;49.466;11.068;2023-04-15T14:10:57;6.18;;;3.80;;
29916;SDS011;16786;49.466;11.068;2023-04-15T14:13:24;5.05;;;3.00;;
29916;SDS011;16786;49.466;11.068;2023-04-15T14:15:52;4.68;;;3.20;;
29916;SDS011;16786;49.466;11.068;2023-04-15T14:18:19;5.63;;;2.55;;
29916;SDS011;16786;49.466;11.068;2023-04-15T14:20:46;3.45;;;2.33;;
29916;SDS011;16786;49.466;11.068;2023-04-15T14:23:14;4.78;;;3.15;;
29916;SDS011;16786;49.466;11.068;2023-04-15T14:25:41;5.68;;;3.47;;
29916;SDS011;16786;49.466;11.068;2023-04-15T14:28:09;4.75;;;3.00;;
29916;SDS011;16786;49.466;11.068;2023-04-15T14:30:36;4.03;;;2.80;;
29916;SDS011;16786;49.466;11.068;2023-04-15T14:33:04;4.00;;;2.60;;
29916;SDS011;16786;49.466;11.068;2023-04-15T14:35:31;4.80;;;3.00;;
29916;SDS011;16786;49.466;11.068;2023-04-15T14:37:59;4.88;;;3.17;;
29916;SDS011;16786;49.466;11.068;2023-04-15T14:40:26;5.22;;;3.05;;
29916;SDS011;16786;49.466;11.068;2023-04-15T14:42:54;4.32;;;2.33;;
29916;SDS011;16786;49.466;11.068;2023-04-15T14:45:22;4.07;;;2.63;;
29916;SDS011;16786;49.466;11.068;2023-04-15T14:47:49;3.95;;;2.67;;
29916;SDS011;16786;49.466;11.068;2023-04-15T14:50:18;6.88;;;2.92;;
29916;SDS011;16786;49.466;11.068;2023-04-15T14:52:46;3.85;;;2.78;;
29916;SDS011;16786;49.466;11.068;2023-04-15T14:55:13;3.78;;;2.63;;